< < Back
Terminal Aerodrome Forecast


Current Version              Previous Versions:   1  2  3  4  5  6  7  8  9  

Terminal Aerodrome Forecast

073
FTUS44 KOHX 242300 RRA
TAFCSV
TAF
KCSV 242345Z 2500/2524 26006KT P6SM SKC
     FM250200 26003KT P6SM SKC
     FM251300 31007KT P6SM FEW050=



Latest METAR

725
SAUS70 KWBC 250158
MTRCSV
METAR KCSV 250153Z AUTO 27006KT 10SM CLR 09/01 A2996 RMK AO2 SLP137
T00890006


USA.gov is the U.S. government's official web portal to all federal, state and local government web resources and services.